Terminal Aerodrome Forecast
Issued by NWS

Home | Current Version | Previous Version | Graphics & Text | Print | Product List | Glossary On
Versions: 1 2 3 4 5 6 7 8 9 10 11 12 13 14 15 16 17 18 19 20 21 22 23 24 25 26 27 28 29 30 31 32
000
FTUS45 KGGW 292320
TAFOLF
TAF
KOLF 292320Z 3000/3024 VRB06KT 1SM FU BKN030
      TEMPO 3000/3003 3/4SM FU VV017
     FM300300 VRB04KT 3SM FU BKN030
     FM300600 VRB04KT 4SM -TSRA FU BKN040CB
     FM301800 33011KT 6SM FU BKN050=

USA.gov is the U.S. government's official web portal to all federal, state and local government web resources and services.